sensor_id;sensor_type;location;lat;lon;timestamp;pressure;altitude;pressure_sealevel;temperature
6550;BMP280;15142;48.888;9.134;2023-04-15T00:00:17;97113.88;;;4.83
6550;BMP280;15142;48.888;9.134;2023-04-15T00:02:49;97116.91;;;4.90
6550;BMP280;15142;48.888;9.134;2023-04-15T00:05:17;97116.41;;;4.93
6550;BMP280;15142;48.888;9.134;2023-04-15T00:07:46;97114.63;;;4.83
6550;BMP280;15142;48.888;9.134;2023-04-15T00:10:14;97121.72;;;4.72
6550;BMP280;15142;48.888;9.134;2023-04-15T00:12:43;97115.88;;;4.61
6550;BMP280;15142;48.888;9.134;2023-04-15T00:15:12;97125.00;;;4.57
6550;BMP280;15142;48.888;9.134;2023-04-15T00:17:41;97118.69;;;4.55
6550;BMP280;15142;48.888;9.134;2023-04-15T00:20:12;97117.41;;;4.38
6550;BMP280;15142;48.888;9.134;2023-04-15T00:22:40;97126.75;;;4.42
6550;BMP280;15142;48.888;9.134;2023-04-15T00:25:09;97120.41;;;4.45
6550;BMP280;15142;48.888;9.134;2023-04-15T00:27:38;97122.94;;;4.45
6550;BMP280;15142;48.888;9.134;2023-04-15T00:30:07;97113.84;;;4.48
6550;BMP280;15142;48.888;9.134;2023-04-15T00:32:36;97123.94;;;4.44
6550;BMP280;15142;48.888;9.134;2023-04-15T00:35:06;97114.38;;;4.36
6550;BMP280;15142;48.888;9.134;2023-04-15T00:37:38;97107.78;;;4.30
6550;BMP280;15142;48.888;9.134;2023-04-15T00:40:11;97109.28;;;4.31
6550;BMP280;15142;48.888;9.134;2023-04-15T00:42:40;97115.88;;;4.32
6550;BMP280;15142;48.888;9.134;2023-04-15T00:45:09;97110.56;;;4.33
6550;BMP280;15142;48.888;9.134;2023-04-15T00:47:40;97112.84;;;4.35
6550;BMP280;15142;48.888;9.134;2023-04-15T00:50:10;97097.16;;;4.33
6550;BMP280;15142;48.888;9.134;2023-04-15T00:52:42;97102.47;;;4.26
6550;BMP280;15142;48.888;9.134;2023-04-15T00:55:11;97105.22;;;4.25
6550;BMP280;15142;48.888;9.134;2023-04-15T00:57:39;97107.78;;;4.20
6550;BMP280;15142;48.888;9.134;2023-04-15T01:00:09;97114.09;;;4.17
6550;BMP280;15142;48.888;9.134;2023-04-15T01:02:39;97113.81;;;4.14
6550;BMP280;15142;48.888;9.134;2023-04-15T01:05:08;97116.34;;;4.14
6550;BMP280;15142;48.888;9.134;2023-04-15T01:07:37;97116.34;;;4.14
6550;BMP280;15142;48.888;9.134;2023-04-15T01:10:09;97114.09;;;4.17
6550;BMP280;15142;48.888;9.134;2023-04-15T01:12:39;97116.63;;;4.22
6550;BMP280;15142;48.888;9.134;2023-04-15T01:15:08;97110.81;;;4.22
6550;BMP280;15142;48.888;9.134;2023-04-15T01:17:38;97120.91;;;4.22
6550;BMP280;15142;48.888;9.134;2023-04-15T01:20:08;97120.91;;;4.22
6550;BMP280;15142;48.888;9.134;2023-04-15T01:22:37;97123.94;;;4.24
6550;BMP280;15142;48.888;9.134;2023-04-15T01:25:14;97122.19;;;4.24
6550;BMP280;15142;48.888;9.134;2023-04-15T01:27:47;97119.38;;;4.21
6550;BMP280;15142;48.888;9.134;2023-04-15T01:30:16;97113.56;;;4.15
6550;BMP280;15142;48.888;9.134;2023-04-15T01:32:45;97119.38;;;4.11
6550;BMP280;15142;48.888;9.134;2023-04-15T01:35:14;97109.78;;;4.03
6550;BMP280;15142;48.888;9.134;2023-04-15T01:37:43;97115.53;;;3.99
6550;BMP280;15142;48.888;9.134;2023-04-15T01:40:12;97108.47;;;4.01
6550;BMP280;15142;48.888;9.134;2023-04-15T01:42:41;97108.25;;;4.02
6550;BMP280;15142;48.888;9.134;2023-04-15T01:45:12;97105.72;;;4.02
6550;BMP280;15142;48.888;9.134;2023-04-15T01:47:41;97106.47;;;4.03
6550;BMP280;15142;48.888;9.134;2023-04-15T01:50:10;97111.22;;;3.94
6550;BMP280;15142;48.888;9.134;2023-04-15T01:52:38;97105.16;;;3.85
6550;BMP280;15142;48.888;9.134;2023-04-15T01:55:08;97102.56;;;3.71
6550;BMP280;15142;48.888;9.134;2023-04-15T01:57:37;97113.63;;;3.65
6550;BMP280;15142;48.888;9.134;2023-04-15T02:00:07;97108.84;;;3.58
6550;BMP280;15142;48.888;9.134;2023-04-15T02:02:42;97108.56;;;3.55
6550;BMP280;15142;48.888;9.134;2023-04-15T02:05:10;97110.50;;;3.43
6550;BMP280;15142;48.888;9.134;2023-04-15T02:07:39;97107.69;;;3.30
6550;BMP280;15142;48.888;9.134;2023-04-15T02:10:09;97105.91;;;3.30
6550;BMP280;15142;48.888;9.134;2023-04-15T02:12:38;97101.41;;;3.37
6550;BMP280;15142;48.888;9.134;2023-04-15T02:15:08;97101.94;;;3.44
6550;BMP280;15142;48.888;9.134;2023-04-15T02:17:36;97103.47;;;3.45
6550;BMP280;15142;48.888;9.134;2023-04-15T02:20:10;97102.69;;;3.45
6550;BMP280;15142;48.888;9.134;2023-04-15T02:22:39;97093.63;;;3.44
6550;BMP280;15142;48.888;9.134;2023-04-15T02:25:08;97090.59;;;3.37
6550;BMP280;15142;48.888;9.134;2023-04-15T02:27:37;97090.09;;;3.40
6550;BMP280;15142;48.888;9.134;2023-04-15T02:30:07;97091.34;;;3.37
6550;BMP280;15142;48.888;9.134;2023-04-15T02:32:36;97097.16;;;3.38
6550;BMP280;15142;48.888;9.134;2023-04-15T02:35:09;97087.34;;;3.46
6550;BMP280;15142;48.888;9.134;2023-04-15T02:37:37;97090.66;;;3.51
6550;BMP280;15142;48.888;9.134;2023-04-15T02:40:11;97088.13;;;3.51
6550;BMP280;15142;48.888;9.134;2023-04-15T02:42:40;97090.41;;;3.53
6550;BMP280;15142;48.888;9.134;2023-04-15T02:45:12;97082.31;;;3.46
6550;BMP280;15142;48.888;9.134;2023-04-15T02:47:43;97088.31;;;3.45
6550;BMP280;15142;48.888;9.134;2023-04-15T02:50:14;97091.13;;;3.44
6550;BMP280;15142;48.888;9.134;2023-04-15T02:52:43;97093.84;;;3.37
6550;BMP280;15142;48.888;9.134;2023-04-15T02:55:11;97088.31;;;3.45
6550;BMP280;15142;48.888;9.134;2023-04-15T02:57:41;97094.41;;;3.49
6550;BMP280;15142;48.888;9.134;2023-04-15T03:00:11;97097.44;;;3.51
6550;BMP280;15142;48.888;9.134;2023-04-15T03:02:44;97093.69;;;3.53
6550;BMP280;15142;48.888;9.134;2023-04-15T03:05:19;97092.97;;;3.58
6550;BMP280;15142;48.888;9.134;2023-04-15T03:07:50;97090.69;;;3.56
6550;BMP280;15142;48.888;9.134;2023-04-15T03:10:19;97089.88;;;3.51
6550;BMP280;15142;48.888;9.134;2023-04-15T03:12:48;97093.66;;;3.48
6550;BMP280;15142;48.888;9.134;2023-04-15T03:15:19;97088.84;;;3.47
6550;BMP280;15142;48.888;9.134;2023-04-15T03:17:51;97086.53;;;3.41
6550;BMP280;15142;48.888;9.134;2023-04-15T03:20:22;97081.69;;;3.24
6550;BMP280;15142;48.888;9.134;2023-04-15T03:22:51;97090.25;;;3.23
6550;BMP280;15142;48.888;9.134;2023-04-15T03:25:21;97091.22;;;3.17
6550;BMP280;15142;48.888;9.134;2023-04-15T03:27:50;97088.41;;;3.09
6550;BMP280;15142;48.888;9.134;2023-04-15T03:30:19;97089.94;;;3.10
6550;BMP280;15142;48.888;9.134;2023-04-15T03:32:48;97088.22;;;3.20
6550;BMP280;15142;48.888;9.134;2023-04-15T03:35:17;97088.25;;;3.25
6550;BMP280;15142;48.888;9.134;2023-04-15T03:37:48;97090.72;;;3.20
6550;BMP280;15142;48.888;9.134;2023-04-15T03:40:16;97079.91;;;3.25
6550;BMP280;15142;48.888;9.134;2023-04-15T03:42:45;97097.84;;;3.28
6550;BMP280;15142;48.888;9.134;2023-04-15T03:45:15;97094.06;;;3.26
6550;BMP280;15142;48.888;9.134;2023-04-15T03:47:43;97087.69;;;3.18
6550;BMP280;15142;48.888;9.134;2023-04-15T03:50:12;97088.22;;;3.20
6550;BMP280;15142;48.888;9.134;2023-04-15T03:52:40;97099.31;;;3.19
6550;BMP280;15142;48.888;9.134;2023-04-15T03:55:12;97089.22;;;3.19
6550;BMP280;15142;48.888;9.134;2023-04-15T03:57:41;97095.56;;;3.27
6550;BMP280;15142;48.888;9.134;2023-04-15T04:00:09;97087.75;;;3.28
6550;BMP280;15142;48.888;9.134;2023-04-15T04:02:38;97086.25;;;3.27
6550;BMP280;15142;48.888;9.134;2023-04-15T04:05:07;97079.44;;;3.28
6550;BMP280;15142;48.888;9.134;2023-04-15T04:07:36;97103.16;;;3.32
6550;BMP280;15142;48.888;9.134;2023-04-15T04:10:06;97099.31;;;3.19
6550;BMP280;15142;48.888;9.134;2023-04-15T04:12:37;97094.22;;;3.10
6550;BMP280;15142;48.888;9.134;2023-04-15T04:15:07;97100.00;;;3.10
6550;BMP280;15142;48.888;9.134;2023-04-15T04:17:36;97095.75;;;3.15
6550;BMP280;15142;48.888;9.134;2023-04-15T04:20:06;97102.25;;;3.07
6550;BMP280;15142;48.888;9.134;2023-04-15T04:22:36;97103.50;;;3.04
6550;BMP280;15142;48.888;9.134;2023-04-15T04:25:06;97099.44;;;3.03
6550;BMP280;15142;48.888;9.134;2023-04-15T04:27:38;97102.00;;;3.08
6550;BMP280;15142;48.888;9.134;2023-04-15T04:30:08;97104.31;;;3.10
6550;BMP280;15142;48.888;9.134;2023-04-15T04:32:37;97107.34;;;3.12
6550;BMP280;15142;48.888;9.134;2023-04-15T04:35:06;97103.06;;;3.12
6550;BMP280;15142;48.888;9.134;2023-04-15T04:37:35;97109.84;;;3.16
6550;BMP280;15142;48.888;9.134;2023-04-15T04:40:06;97122.75;;;3.20
6550;BMP280;15142;48.888;9.134;2023-04-15T04:42:38;97113.47;;;3.25
6550;BMP280;15142;48.888;9.134;2023-04-15T04:45:07;97120.06;;;3.31
6550;BMP280;15142;48.888;9.134;2023-04-15T04:47:36;97119.53;;;3.29
6550;BMP280;15142;48.888;9.134;2023-04-15T04:50:08;97116.22;;;3.24
6550;BMP280;15142;48.888;9.134;2023-04-15T04:52:37;97123.03;;;3.28
6550;BMP280;15142;48.888;9.134;2023-04-15T04:55:06;97121.03;;;3.25
6550;BMP280;15142;48.888;9.134;2023-04-15T04:57:38;97129.06;;;3.22
6550;BMP280;15142;48.888;9.134;2023-04-15T05:00:07;97118.91;;;3.13
6550;BMP280;15142;48.888;9.134;2023-04-15T05:02:38;97123.22;;;3.12
6550;BMP280;15142;48.888;9.134;2023-04-15T05:05:09;97117.66;;;3.10
6550;BMP280;15142;48.888;9.134;2023-04-15T05:07:37;97126.72;;;3.11
6550;BMP280;15142;48.888;9.134;2023-04-15T05:10:08;97120.91;;;3.11
6550;BMP280;15142;48.888;9.134;2023-04-15T05:12:39;97127.97;;;3.09
6550;BMP280;15142;48.888;9.134;2023-04-15T05:15:09;97126.22;;;3.14
6550;BMP280;15142;48.888;9.134;2023-04-15T05:17:37;97122.00;;;3.24
6550;BMP280;15142;48.888;9.134;2023-04-15T05:20:07;97126.59;;;3.32
6550;BMP280;15142;48.888;9.134;2023-04-15T05:22:36;97127.13;;;3.39
6550;BMP280;15142;48.888;9.134;2023-04-15T05:25:05;97128.16;;;3.43
6550;BMP280;15142;48.888;9.134;2023-04-15T05:27:34;97130.19;;;3.46
6550;BMP280;15142;48.888;9.134;2023-04-15T05:30:07;97128.44;;;3.46
6550;BMP280;15142;48.888;9.134;2023-04-15T05:32:36;97130.22;;;3.51
6550;BMP280;15142;48.888;9.134;2023-04-15T05:35:05;97126.25;;;3.60
6550;BMP280;15142;48.888;9.134;2023-04-15T05:37:35;97119.69;;;3.64
6550;BMP280;15142;48.888;9.134;2023-04-15T05:40:05;97124.28;;;3.72
6550;BMP280;15142;48.888;9.134;2023-04-15T05:42:35;97125.31;;;3.80
6550;BMP280;15142;48.888;9.134;2023-04-15T05:45:07;97127.13;;;3.90
6550;BMP280;15142;48.888;9.134;2023-04-15T05:47:35;97122.41;;;4.03
6550;BMP280;15142;48.888;9.134;2023-04-15T05:50:05;97118.38;;;4.17
6550;BMP280;15142;48.888;9.134;2023-04-15T05:52:34;97128.72;;;4.30
6550;BMP280;15142;48.888;9.134;2023-04-15T05:55:03;97134.06;;;4.44
6550;BMP280;15142;48.888;9.134;2023-04-15T05:57:32;97131.03;;;4.66
6550;BMP280;15142;48.888;9.134;2023-04-15T06:00:01;97125.22;;;4.80
6550;BMP280;15142;48.888;9.134;2023-04-15T06:02:38;97131.03;;;4.96
6550;BMP280;15142;48.888;9.134;2023-04-15T06:05:07;97134.03;;;5.12
6550;BMP280;15142;48.888;9.134;2023-04-15T06:07:37;97126.97;;;5.19
6550;BMP280;15142;48.888;9.134;2023-04-15T06:10:07;97131.97;;;5.34
6550;BMP280;15142;48.888;9.134;2023-04-15T06:12:36;97124.09;;;5.45
6550;BMP280;15142;48.888;9.134;2023-04-15T06:15:06;97135.50;;;5.53
6550;BMP280;15142;48.888;9.134;2023-04-15T06:17:35;97136.91;;;5.74
6550;BMP280;15142;48.888;9.134;2023-04-15T06:20:07;97142.97;;;5.78
6550;BMP280;15142;48.888;9.134;2023-04-15T06:22:36;97137.38;;;5.85
6550;BMP280;15142;48.888;9.134;2023-04-15T06:25:06;97140.34;;;5.92
6550;BMP280;15142;48.888;9.134;2023-04-15T06:27:36;97154.47;;;6.08
6550;BMP280;15142;48.888;9.134;2023-04-15T06:30:06;97149.34;;;6.23
6550;BMP280;15142;48.888;9.134;2023-04-15T06:32:35;97160.34;;;6.42
6550;BMP280;15142;48.888;9.134;2023-04-15T06:35:07;97161.50;;;6.59
6550;BMP280;15142;48.888;9.134;2023-04-15T06:37:36;97159.59;;;6.74
6550;BMP280;15142;48.888;9.134;2023-04-15T06:40:07;97155.50;;;6.78
6550;BMP280;15142;48.888;9.134;2023-04-15T06:42:36;97160.41;;;6.98
6550;BMP280;15142;48.888;9.134;2023-04-15T06:45:06;97156.28;;;7.02
6550;BMP280;15142;48.888;9.134;2023-04-15T06:47:35;97168.75;;;7.26
6550;BMP280;15142;48.888;9.134;2023-04-15T06:50:07;97164.19;;;7.23
6550;BMP280;15142;48.888;9.134;2023-04-15T06:52:36;97162.06;;;7.35
6550;BMP280;15142;48.888;9.134;2023-04-15T06:55:06;97162.13;;;7.53
6550;BMP280;15142;48.888;9.134;2023-04-15T06:57:35;97179.44;;;7.69
6550;BMP280;15142;48.888;9.134;2023-04-15T07:00:05;97173.69;;;7.64
6550;BMP280;15142;48.888;9.134;2023-04-15T07:02:35;97172.72;;;7.78
6550;BMP280;15142;48.888;9.134;2023-04-15T07:05:06;97174.47;;;7.83
6550;BMP280;15142;48.888;9.134;2023-04-15T07:07:35;97177.69;;;7.88
6550;BMP280;15142;48.888;9.134;2023-04-15T07:10:06;97168.38;;;8.02
6550;BMP280;15142;48.888;9.134;2023-04-15T07:12:36;97173.31;;;8.12
6550;BMP280;15142;48.888;9.134;2023-04-15T07:15:06;97174.06;;;8.12
6550;BMP280;15142;48.888;9.134;2023-04-15T07:17:34;97167.41;;;7.98
6550;BMP280;15142;48.888;9.134;2023-04-15T07:20:07;97162.88;;;7.95
6550;BMP280;15142;48.888;9.134;2023-04-15T07:22:36;97163.00;;;7.85
6550;BMP280;15142;48.888;9.134;2023-04-15T07:25:06;97155.31;;;7.90
6550;BMP280;15142;48.888;9.134;2023-04-15T07:27:35;97145.03;;;8.00
6550;BMP280;15142;48.888;9.134;2023-04-15T07:30:05;97150.09;;;8.18
6550;BMP280;15142;48.888;9.134;2023-04-15T07:32:34;97148.25;;;8.24
6550;BMP280;15142;48.888;9.134;2023-04-15T07:35:07;97151.59;;;8.37
6550;BMP280;15142;48.888;9.134;2023-04-15T07:37:36;97143.75;;;8.52
6550;BMP280;15142;48.888;9.134;2023-04-15T07:40:06;97154.88;;;8.56
6550;BMP280;15142;48.888;9.134;2023-04-15T07:42:35;97156.16;;;8.72
6550;BMP280;15142;48.888;9.134;2023-04-15T07:45:05;97160.56;;;9.11
6550;BMP280;15142;48.888;9.134;2023-04-15T07:47:34;97159.34;;;9.35
6550;BMP280;15142;48.888;9.134;2023-04-15T07:50:06;97155.34;;;9.43
6550;BMP280;15142;48.888;9.134;2023-04-15T07:52:35;97161.09;;;9.48
6550;BMP280;15142;48.888;9.134;2023-04-15T07:55:04;97163.84;;;9.52
6550;BMP280;15142;48.888;9.134;2023-04-15T07:57:34;97161.38;;;9.47
6550;BMP280;15142;48.888;9.134;2023-04-15T08:00:03;97161.66;;;9.72
6550;BMP280;15142;48.888;9.134;2023-04-15T08:02:41;97151.22;;;9.82
6550;BMP280;15142;48.888;9.134;2023-04-15T08:05:14;97156.31;;;10.17
6550;BMP280;15142;48.888;9.134;2023-04-15T08:07:43;97153.38;;;10.45
6550;BMP280;15142;48.888;9.134;2023-04-15T08:10:13;97153.25;;;10.49
6550;BMP280;15142;48.888;9.134;2023-04-15T08:12:41;97144.50;;;10.42
6550;BMP280;15142;48.888;9.134;2023-04-15T08:15:13;97145.38;;;10.68
6550;BMP280;15142;48.888;9.134;2023-04-15T08:17:42;97146.25;;;10.93
6550;BMP280;15142;48.888;9.134;2023-04-15T08:20:14;97148.34;;;10.91
6550;BMP280;15142;48.888;9.134;2023-04-15T08:22:43;97141.16;;;10.93
6550;BMP280;15142;48.888;9.134;2023-04-15T08:25:16;97141.59;;;10.57
6550;BMP280;15142;48.888;9.134;2023-04-15T08:27:45;97136.72;;;10.47
6550;BMP280;15142;48.888;9.134;2023-04-15T08:30:14;97152.31;;;10.67
6550;BMP280;15142;48.888;9.134;2023-04-15T08:32:44;97149.06;;;10.83
6550;BMP280;15142;48.888;9.134;2023-04-15T08:35:16;97140.19;;;10.73
6550;BMP280;15142;48.888;9.134;2023-04-15T08:37:45;97147.41;;;11.17
6550;BMP280;15142;48.888;9.134;2023-04-15T08:40:14;97143.09;;;11.43
6550;BMP280;15142;48.888;9.134;2023-04-15T08:42:44;97151.69;;;11.38
6550;BMP280;15142;48.888;9.134;2023-04-15T08:45:17;97145.56;;;11.73
6550;BMP280;15142;48.888;9.134;2023-04-15T08:47:48;97141.19;;;11.73
6550;BMP280;15142;48.888;9.134;2023-04-15T08:50:24;97154.09;;;12.27
6550;BMP280;15142;48.888;9.134;2023-04-15T08:52:54;97153.94;;;12.32
6550;BMP280;15142;48.888;9.134;2023-04-15T08:55:24;97141.31;;;12.27
6550;BMP280;15142;48.888;9.134;2023-04-15T08:57:54;97145.78;;;12.47
6550;BMP280;15142;48.888;9.134;2023-04-15T09:00:24;97155.84;;;12.97
6550;BMP280;15142;48.888;9.134;2023-04-15T09:02:54;97145.50;;;12.93
6550;BMP280;15142;48.888;9.134;2023-04-15T09:05:25;97149.97;;;12.96
6550;BMP280;15142;48.888;9.134;2023-04-15T09:07:53;97154.13;;;13.09
6550;BMP280;15142;48.888;9.134;2023-04-15T09:10:22;97155.25;;;13.00
6550;BMP280;15142;48.888;9.134;2023-04-15T09:12:51;97147.00;;;13.14
6550;BMP280;15142;48.888;9.134;2023-04-15T09:15:19;97144.19;;;13.36
6550;BMP280;15142;48.888;9.134;2023-04-15T09:17:48;97153.31;;;13.25
6550;BMP280;15142;48.888;9.134;2023-04-15T09:20:17;97148.91;;;13.26
6550;BMP280;15142;48.888;9.134;2023-04-15T09:22:49;97153.50;;;13.61
6550;BMP280;15142;48.888;9.134;2023-04-15T09:25:25;97155.31;;;13.40
6550;BMP280;15142;48.888;9.134;2023-04-15T09:27:55;97158.31;;;13.42
6550;BMP280;15142;48.888;9.134;2023-04-15T09:30:24;97155.06;;;13.33
6550;BMP280;15142;48.888;9.134;2023-04-15T09:32:53;97159.22;;;13.17
6550;BMP280;15142;48.888;9.134;2023-04-15T09:35:24;97161.53;;;13.51
6550;BMP280;15142;48.888;9.134;2023-04-15T09:38:01;97162.91;;;13.77
6550;BMP280;15142;48.888;9.134;2023-04-15T09:40:31;97153.50;;;13.81
6550;BMP280;15142;48.888;9.134;2023-04-15T09:43:01;97160.34;;;13.77
6550;BMP280;15142;48.888;9.134;2023-04-15T09:45:31;97168.81;;;13.49
6550;BMP280;15142;48.888;9.134;2023-04-15T09:48:16;97160.31;;;13.57
6550;BMP280;15142;48.888;9.134;2023-04-15T09:50:45;97165.63;;;13.52
6550;BMP280;15142;48.888;9.134;2023-04-15T09:53:20;97167.06;;;13.41
6550;BMP280;15142;48.888;9.134;2023-04-15T09:55:50;97173.28;;;13.32
6550;BMP280;15142;48.888;9.134;2023-04-15T09:58:20;97169.97;;;13.60
6550;BMP280;15142;48.888;9.134;2023-04-15T10:00:50;97177.22;;;13.58
6550;BMP280;15142;48.888;9.134;2023-04-15T10:03:20;97178.94;;;14.06
6550;BMP280;15142;48.888;9.134;2023-04-15T10:05:50;97172.19;;;14.33
6550;BMP280;15142;48.888;9.134;2023-04-15T10:08:24;97170.19;;;14.07
6550;BMP280;15142;48.888;9.134;2023-04-15T10:10:53;97169.59;;;13.90
6550;BMP280;15142;48.888;9.134;2023-04-15T10:13:23;97158.28;;;14.02
6550;BMP280;15142;48.888;9.134;2023-04-15T10:15:57;97166.63;;;14.00
6550;BMP280;15142;48.888;9.134;2023-04-15T10:18:27;97174.69;;;14.42
6550;BMP280;15142;48.888;9.134;2023-04-15T10:20:56;97165.59;;;14.68
6550;BMP280;15142;48.888;9.134;2023-04-15T10:23:27;97176.41;;;14.61
6550;BMP280;15142;48.888;9.134;2023-04-15T10:25:56;97175.19;;;15.03
6550;BMP280;15142;48.888;9.134;2023-04-15T10:28:26;97171.19;;;15.29
6550;BMP280;15142;48.888;9.134;2023-04-15T10:30:56;97169.47;;;14.86
6550;BMP280;15142;48.888;9.134;2023-04-15T10:33:26;97173.56;;;14.87
6550;BMP280;15142;48.888;9.134;2023-04-15T10:35:55;97181.47;;;14.93
6550;BMP280;15142;48.888;9.134;2023-04-15T10:38:37;97177.16;;;14.62
6550;BMP280;15142;48.888;9.134;2023-04-15T10:41:18;97177.72;;;14.67
6550;BMP280;15142;48.888;9.134;2023-04-15T10:43:48;97183.59;;;15.15
6550;BMP280;15142;48.888;9.134;2023-04-15T10:46:33;97190.16;;;15.24
6550;BMP280;15142;48.888;9.134;2023-04-15T10:49:07;97189.78;;;15.38
6550;BMP280;15142;48.888;9.134;2023-04-15T10:51:37;97191.00;;;15.28
6550;BMP280;15142;48.888;9.134;2023-04-15T10:54:13;97187.44;;;15.33
6550;BMP280;15142;48.888;9.134;2023-04-15T10:56:43;97189.78;;;15.38
6550;BMP280;15142;48.888;9.134;2023-04-15T10:59:12;97192.19;;;14.95
6550;BMP280;15142;48.888;9.134;2023-04-15T11:01:52;97195.81;;;14.83
6550;BMP280;15142;48.888;9.134;2023-04-15T11:04:54;97187.47;;;14.97
6550;BMP280;15142;48.888;9.134;2023-04-15T11:07:50;97195.50;;;15.82
6550;BMP280;15142;48.888;9.134;2023-04-15T11:13:22;97174.31;;;16.15
6550;BMP280;15142;48.888;9.134;2023-04-15T11:15:55;97173.84;;;15.71
6550;BMP280;15142;48.888;9.134;2023-04-15T11:18:35;97174.31;;;15.61
6550;BMP280;15142;48.888;9.134;2023-04-15T11:21:05;97171.94;;;15.17
6550;BMP280;15142;48.888;9.134;2023-04-15T11:23:36;97181.69;;;14.65
6550;BMP280;15142;48.888;9.134;2023-04-15T11:26:07;97181.44;;;13.94
6550;BMP280;15142;48.888;9.134;2023-04-15T11:28:40;97189.50;;;14.04
6550;BMP280;15142;48.888;9.134;2023-04-15T11:31:12;97192.72;;;14.02
6550;BMP280;15142;48.888;9.134;2023-04-15T11:33:45;97199.09;;;14.48
6550;BMP280;15142;48.888;9.134;2023-04-15T11:36:14;97203.31;;;14.99
6550;BMP280;15142;48.888;9.134;2023-04-15T11:38:43;97194.69;;;15.66
6550;BMP280;15142;48.888;9.134;2023-04-15T11:41:13;97182.72;;;15.73
6550;BMP280;15142;48.888;9.134;2023-04-15T11:43:45;97199.44;;;15.79
6550;BMP280;15142;48.888;9.134;2023-04-15T11:46:13;97192.19;;;15.70
6550;BMP280;15142;48.888;9.134;2023-04-15T11:48:44;97186.38;;;15.34
6550;BMP280;15142;48.888;9.134;2023-04-15T11:51:13;97187.34;;;15.17
6550;BMP280;15142;48.888;9.134;2023-04-15T11:53:43;97190.47;;;15.35
6550;BMP280;15142;48.888;9.134;2023-04-15T11:56:16;97189.28;;;14.73
6550;BMP280;15142;48.888;9.134;2023-04-15T11:58:51;97193.56;;;14.93
6550;BMP280;15142;48.888;9.134;2023-04-15T12:01:29;97198.16;;;14.76
6550;BMP280;15142;48.888;9.134;2023-04-15T12:03:59;97200.75;;;14.76
6550;BMP280;15142;48.888;9.134;2023-04-15T12:06:31;97222.34;;;14.63
6550;BMP280;15142;48.888;9.134;2023-04-15T12:09:11;97220.31;;;14.25
6550;BMP280;15142;48.888;9.134;2023-04-15T12:11:42;97236.09;;;13.17
6550;BMP280;15142;48.888;9.134;2023-04-15T12:14:19;97245.13;;;11.95
6550;BMP280;15142;48.888;9.134;2023-04-15T12:16:50;97279.09;;;11.10
6550;BMP280;15142;48.888;9.134;2023-04-15T12:19:23;97293.00;;;10.39
6550;BMP280;15142;48.888;9.134;2023-04-15T12:21:57;97317.06;;;10.12
6550;BMP280;15142;48.888;9.134;2023-04-15T12:24:26;97325.81;;;9.92
6550;BMP280;15142;48.888;9.134;2023-04-15T12:26:56;97333.47;;;9.92
6550;BMP280;15142;48.888;9.134;2023-04-15T12:29:29;97308.75;;;9.93
6550;BMP280;15142;48.888;9.134;2023-04-15T12:32:04;97314.38;;;9.90
6550;BMP280;15142;48.888;9.134;2023-04-15T12:34:35;97312.03;;;10.07
6550;BMP280;15142;48.888;9.134;2023-04-15T12:37:06;97314.09;;;10.18
6550;BMP280;15142;48.888;9.134;2023-04-15T12:39:37;97320.22;;;10.30
6550;BMP280;15142;48.888;9.134;2023-04-15T12:42:07;97326.44;;;10.51
6550;BMP280;15142;48.888;9.134;2023-04-15T12:44:38;97333.66;;;10.71
6550;BMP280;15142;48.888;9.134;2023-04-15T12:47:09;97340.53;;;10.92
6550;BMP280;15142;48.888;9.134;2023-04-15T12:49:38;97328.94;;;11.07
6550;BMP280;15142;48.888;9.134;2023-04-15T12:52:06;97334.69;;;11.13
6550;BMP280;15142;48.888;9.134;2023-04-15T12:54:35;97323.81;;;11.29
6550;BMP280;15142;48.888;9.134;2023-04-15T12:57:03;97335.19;;;11.45
6550;BMP280;15142;48.888;9.134;2023-04-15T12:59:32;97345.25;;;11.80
6550;BMP280;15142;48.888;9.134;2023-04-15T13:02:03;97340.03;;;11.93
6550;BMP280;15142;48.888;9.134;2023-04-15T13:04:32;97348.84;;;11.79
6550;BMP280;15142;48.888;9.134;2023-04-15T13:07:01;97342.66;;;11.71
6550;BMP280;15142;48.888;9.134;2023-04-15T13:09:30;97350.47;;;11.67
6550;BMP280;15142;48.888;9.134;2023-04-15T13:11:59;97331.94;;;11.61
6550;BMP280;15142;48.888;9.134;2023-04-15T13:14:29;97351.88;;;11.81
6550;BMP280;15142;48.888;9.134;2023-04-15T13:16:58;97355.53;;;11.88
6550;BMP280;15142;48.888;9.134;2023-04-15T13:19:29;97358.09;;;11.97
6550;BMP280;15142;48.888;9.134;2023-04-15T13:21:58;97343.06;;;12.03
6550;BMP280;15142;48.888;9.134;2023-04-15T13:24:27;97354.56;;;12.23
6550;BMP280;15142;48.888;9.134;2023-04-15T13:26:56;97353.66;;;12.35
6550;BMP280;15142;48.888;9.134;2023-04-15T13:29:24;97361.34;;;12.44
6550;BMP280;15142;48.888;9.134;2023-04-15T13:31:53;97352.63;;;12.53
6550;BMP280;15142;48.888;9.134;2023-04-15T13:34:21;97359.56;;;12.53
6550;BMP280;15142;48.888;9.134;2023-04-15T13:36:53;97354.13;;;12.46
6550;BMP280;15142;48.888;9.134;2023-04-15T13:39:21;97354.13;;;12.46
6550;BMP280;15142;48.888;9.134;2023-04-15T13:41:51;97351.56;;;12.29
6550;BMP280;15142;48.888;9.134;2023-04-15T13:44:20;97355.56;;;12.13
6550;BMP280;15142;48.888;9.134;2023-04-15T13:46:49;97355.31;;;12.23
6550;BMP280;15142;48.888;9.134;2023-04-15T13:49:18;97364.91;;;12.09
6550;BMP280;15142;48.888;9.134;2023-04-15T13:51:46;97368.81;;;12.07
6550;BMP280;15142;48.888;9.134;2023-04-15T13:54:18;97368.91;;;11.94
6550;BMP280;15142;48.888;9.134;2023-04-15T13:56:46;97372.81;;;11.91
6550;BMP280;15142;48.888;9.134;2023-04-15T13:59:14;97372.97;;;11.95
6550;BMP280;15142;48.888;9.134;2023-04-15T14:01:43;97370.25;;;11.83
6550;BMP280;15142;48.888;9.134;2023-04-15T14:04:12;97378.81;;;11.87
6550;BMP280;15142;48.888;9.134;2023-04-15T14:06:41;97377.94;;;11.99
6550;BMP280;15142;48.888;9.134;2023-04-15T14:09:09;97376.91;;;12.00
6550;BMP280;15142;48.888;9.134;2023-04-15T14:11:40;97372.34;;;11.97
6550;BMP280;15142;48.888;9.134;2023-04-15T14:14:09;97374.59;;;11.91
6550;BMP280;15142;48.888;9.134;2023-04-15T14:16:38;97377.72;;;11.79
6550;BMP280;15142;48.888;9.134;2023-04-15T14:19:06;97378.16;;;11.73
6550;BMP280;15142;48.888;9.134;2023-04-15T14:21:35;97387.34;;;11.74
6550;BMP280;15142;48.888;9.134;2023-04-15T14:24:04;97382.75;;;11.63
6550;BMP280;15142;48.888;9.134;2023-04-15T14:26:33;97384.59;;;11.62
6550;BMP280;15142;48.888;9.134;2023-04-15T14:29:04;97392.63;;;11.56
6550;BMP280;15142;48.888;9.134;2023-04-15T14:31:32;97405.75;;;11.54
6550;BMP280;15142;48.888;9.134;2023-04-15T14:34:01;97397.13;;;11.50
6550;BMP280;15142;48.888;9.134;2023-04-15T14:36:30;97404.72;;;11.42
6550;BMP280;15142;48.888;9.134;2023-04-15T14:38:59;97405.88;;;11.36
6550;BMP280;15142;48.888;9.134;2023-04-15T14:41:28;97409.16;;;11.28
6550;BMP280;15142;48.888;9.134;2023-04-15T14:43:57;97420.72;;;11.26
6550;BMP280;15142;48.888;9.134;2023-04-15T14:46:28;97434.81;;;11.23
6550;BMP280;15142;48.888;9.134;2023-04-15T14:48:58;97439.44;;;11.21